Terminal Aerodrome Forecast
Issued by NWS Jackson, MS

Current Version | Previous Version | Text Only | Print | Product List | Glossary On
Versions: 1 2 3 4 5 6 7 8 9 10 11 12 13 14
000
FTUS44 KJAN 011722
TAFMEI
TAF
KMEI 011722Z 0118/0218 06005KT P6SM SCT060
     FM021100 00000KT 4SM BR SCT250
     FM021330 22003KT P6SM FEW040=

USA.gov is the U.S. government's official web portal to all federal, state and local government web resources and services.